createdAt,value
2023-02-11T00:00:44.913Z,2.41
2023-02-11T00:03:29.951Z,2.46
2023-02-11T00:06:11.851Z,2.49
2023-02-11T00:08:48.323Z,2.48
2023-02-11T00:11:34.857Z,2.47
2023-02-11T00:14:10.862Z,2.48
2023-02-11T00:16:48.058Z,2.49
2023-02-11T00:19:25.098Z,2.46
2023-02-11T00:22:02.672Z,2.49
2023-02-11T00:24:40.121Z,2.51
2023-02-11T00:27:10.464Z,2.50
2023-02-11T00:29:49.055Z,2.53
2023-02-11T00:32:26.473Z,2.57
2023-02-11T00:35:03.726Z,2.56
2023-02-11T00:37:41.053Z,2.62
2023-02-11T00:40:12.304Z,2.68
2023-02-11T00:42:44.993Z,2.72
2023-02-11T00:45:23.696Z,2.74
2023-02-11T00:48:00.563Z,2.75
2023-02-11T00:50:37.308Z,2.76
2023-02-11T00:53:10.333Z,2.77
2023-02-11T00:55:47.807Z,2.83
2023-02-11T00:58:24.829Z,2.81
2023-02-11T01:01:02.250Z,2.78
2023-02-11T01:03:41.391Z,2.73
2023-02-11T01:06:12.548Z,2.70
2023-02-11T01:08:50.413Z,2.67
2023-02-11T01:11:27.042Z,2.64
2023-02-11T01:14:03.554Z,2.64
2023-02-11T01:16:34.046Z,2.65
2023-02-11T01:19:11.028Z,2.64
2023-02-11T01:21:48.041Z,2.59
2023-02-11T01:24:24.933Z,2.55
2023-02-11T01:26:55.823Z,2.52
2023-02-11T01:29:31.049Z,2.50
2023-02-11T01:32:08.134Z,2.48
2023-02-11T01:34:45.521Z,2.50
2023-02-11T01:37:24.808Z,2.52
2023-02-11T01:40:03.326Z,2.49
2023-02-11T01:42:40.798Z,2.45
2023-02-11T01:45:50.238Z,2.44
2023-02-11T01:48:51.226Z,2.45
2023-02-11T01:51:35.020Z,2.46
2023-02-11T01:54:38.433Z,2.45
2023-02-11T01:57:25.575Z,2.51
2023-02-11T02:00:24.795Z,2.54
2023-02-11T02:03:22.927Z,2.54
2023-02-11T02:06:29.267Z,2.53
2023-02-11T02:09:31.686Z,2.49
2023-02-11T02:12:08.683Z,2.45
2023-02-11T02:14:46.014Z,2.43
2023-02-11T02:17:46.880Z,2.49
2023-02-11T02:21:00.484Z,2.51
2023-02-11T02:24:07.297Z,2.49
2023-02-11T02:27:30.062Z,2.51
2023-02-11T02:31:15.352Z,2.49
2023-02-11T02:34:06.459Z,2.47
2023-02-11T02:37:23.131Z,2.43
2023-02-11T02:40:04.309Z,2.46
2023-02-11T02:42:42.891Z,2.50
2023-02-11T02:45:21.118Z,2.50
2023-02-11T02:47:58.381Z,2.49
2023-02-11T02:50:39.561Z,2.45
2023-02-11T02:53:28.311Z,2.42
2023-02-11T02:56:39.853Z,2.43
2023-02-11T02:59:38.008Z,2.43
2023-02-11T03:02:31.136Z,2.48
2023-02-11T03:05:21.772Z,2.51
2023-02-11T03:08:14.735Z,2.52
2023-02-11T03:10:55.704Z,2.53
2023-02-11T03:13:35.493Z,2.51
2023-02-11T03:16:24.639Z,2.51
2023-02-11T03:19:20.744Z,2.47
2023-02-11T03:21:58.096Z,2.42
2023-02-11T03:24:41.477Z,2.52
2023-02-11T03:27:32.829Z,2.53
2023-02-11T03:30:21.663Z,2.54
2023-02-11T03:33:04.038Z,2.51
2023-02-11T03:35:58.808Z,2.50
2023-02-11T03:38:45.412Z,2.48
2023-02-11T03:41:24.878Z,2.48
2023-02-11T03:44:02.728Z,2.54
2023-02-11T03:46:49.716Z,2.58
2023-02-11T03:49:29.245Z,2.58
2023-02-11T03:52:11.573Z,2.58
2023-02-11T03:54:53.239Z,2.58
2023-02-11T03:57:30.803Z,2.55
2023-02-11T04:00:10.000Z,2.52
2023-02-11T04:02:46.980Z,2.50
2023-02-11T04:05:24.391Z,2.54
2023-02-11T04:08:02.048Z,2.54
2023-02-11T04:10:39.522Z,2.54
2023-02-11T04:13:16.337Z,2.51
2023-02-11T04:15:54.690Z,2.50
2023-02-11T04:18:31.980Z,2.44
2023-02-11T04:21:09.557Z,2.40
2023-02-11T04:23:47.026Z,2.42
2023-02-11T04:26:17.384Z,2.44
2023-02-11T04:28:55.219Z,2.45
2023-02-11T04:31:32.226Z,2.42
2023-02-11T04:34:09.776Z,2.41
2023-02-11T04:36:46.531Z,2.39
2023-02-11T04:39:24.011Z,2.37
2023-02-11T04:42:01.166Z,2.32
2023-02-11T04:44:38.502Z,2.29
2023-02-11T04:47:16.150Z,2.28
2023-02-11T04:49:53.037Z,2.30
2023-02-11T04:52:30.431Z,2.30
2023-02-11T04:55:00.790Z,2.28
2023-02-11T04:57:35.844Z,2.26
2023-02-11T05:00:14.268Z,2.22
2023-02-11T05:02:51.317Z,2.20
2023-02-11T05:05:28.904Z,2.16
2023-02-11T05:08:06.729Z,2.13
2023-02-11T05:10:48.334Z,2.17
2023-02-11T05:13:25.850Z,2.20
2023-02-11T05:16:03.046Z,2.22
2023-02-11T05:18:41.732Z,2.22
2023-02-11T05:21:23.112Z,2.22
2023-02-11T05:23:59.791Z,2.22
2023-02-11T05:26:36.680Z,2.19
2023-02-11T05:29:13.697Z,2.17
2023-02-11T05:31:43.732Z,2.22
2023-02-11T05:34:17.280Z,2.27
2023-02-11T05:36:55.119Z,2.29
2023-02-11T05:39:32.408Z,2.31
2023-02-11T05:42:10.268Z,2.33
2023-02-11T05:44:50.314Z,2.32
2023-02-11T05:47:28.560Z,2.31
2023-02-11T05:50:06.083Z,2.29
2023-02-11T05:52:42.667Z,2.29
2023-02-11T05:55:20.285Z,2.28
2023-02-11T05:57:58.478Z,2.34
2023-02-11T06:00:35.366Z,2.40
2023-02-11T06:03:13.098Z,2.40
2023-02-11T06:05:50.886Z,2.43
2023-02-11T06:08:21.172Z,2.43
2023-02-11T06:10:59.214Z,2.43
2023-02-11T06:13:37.062Z,2.41
2023-02-11T06:16:14.648Z,2.39
2023-02-11T06:18:45.007Z,2.43
2023-02-11T06:21:23.869Z,2.44
2023-02-11T06:24:03.537Z,2.47
2023-02-11T06:26:41.218Z,2.49
2023-02-11T06:29:17.823Z,2.49
2023-02-11T06:31:54.625Z,2.50
2023-02-11T06:34:33.829Z,2.47
2023-02-11T06:37:05.493Z,2.44
2023-02-11T06:39:39.066Z,2.49
2023-02-11T06:42:16.655Z,2.51
2023-02-11T06:44:53.520Z,2.52
2023-02-11T06:47:30.609Z,2.54
2023-02-11T06:50:08.243Z,2.57
2023-02-11T06:52:45.661Z,2.58
2023-02-11T06:55:22.938Z,2.59
2023-02-11T06:58:00.260Z,2.61
2023-02-11T07:00:38.905Z,2.64
2023-02-11T07:03:16.505Z,2.72
2023-02-11T07:05:53.781Z,2.81
2023-02-11T07:08:24.005Z,2.83
2023-02-11T07:10:59.665Z,2.79
2023-02-11T07:13:36.705Z,2.75
2023-02-11T07:16:16.079Z,2.73
2023-02-11T07:18:52.359Z,2.70
2023-02-11T07:21:24.881Z,2.75
2023-02-11T07:23:56.369Z,2.73
2023-02-11T07:26:27.835Z,2.69
2023-02-11T07:29:00.797Z,2.66
2023-02-11T07:31:38.279Z,2.63
2023-02-11T07:34:15.309Z,2.60
2023-02-11T07:36:51.879Z,2.56
2023-02-11T07:39:23.542Z,2.53
2023-02-11T07:41:55.845Z,2.57
2023-02-11T07:44:27.508Z,2.58
2023-02-11T07:47:01.636Z,2.52
2023-02-11T07:49:39.499Z,2.47
2023-02-11T07:52:16.263Z,2.43
2023-02-11T07:54:53.673Z,2.37
2023-02-11T07:57:31.311Z,2.38
2023-02-11T08:00:01.824Z,2.41
2023-02-11T08:02:39.923Z,2.45
2023-02-11T08:05:16.547Z,2.45
2023-02-11T08:07:47.545Z,2.40
2023-02-11T08:10:19.293Z,2.39
2023-02-11T08:12:56.537Z,2.38
2023-02-11T08:15:33.288Z,2.32
2023-02-11T08:18:03.779Z,2.36
2023-02-11T08:20:42.138Z,2.44
2023-02-11T08:23:20.208Z,2.46
2023-02-11T08:26:02.250Z,2.44
2023-02-11T08:28:42.145Z,2.39
2023-02-11T08:31:22.390Z,2.44
2023-02-11T08:34:02.688Z,2.49
2023-02-11T08:36:43.234Z,2.48
2023-02-11T08:39:22.284Z,2.45
2023-02-11T08:41:57.800Z,2.48
2023-02-11T08:44:34.120Z,2.42
2023-02-11T08:47:04.710Z,2.41
2023-02-11T08:49:42.882Z,2.46
2023-02-11T08:52:20.699Z,2.47
2023-02-11T08:54:57.989Z,2.52
2023-02-11T08:57:34.647Z,2.54
2023-02-11T09:00:13.719Z,2.53
2023-02-11T09:02:50.074Z,2.57
2023-02-11T09:05:20.802Z,2.61
2023-02-11T09:07:51.909Z,2.60
2023-02-11T09:10:23.385Z,2.59
2023-02-11T09:13:01.700Z,2.64
2023-02-11T09:15:39.717Z,2.67
2023-02-11T09:18:17.501Z,2.74
2023-02-11T09:20:54.309Z,2.79
2023-02-11T09:23:25.205Z,2.79
2023-02-11T09:25:57.571Z,2.77
2023-02-11T09:28:30.042Z,2.76
2023-02-11T09:31:08.471Z,2.77
2023-02-11T09:33:49.670Z,2.86
2023-02-11T09:36:30.515Z,2.90
2023-02-11T09:39:06.167Z,2.92
2023-02-11T09:41:51.699Z,2.88
2023-02-11T09:44:31.965Z,2.81
2023-02-11T09:47:29.953Z,2.77
2023-02-11T09:50:14.625Z,2.83
2023-02-11T09:53:00.280Z,2.83
2023-02-11T09:55:45.813Z,2.78
2023-02-11T09:58:42.727Z,2.69
2023-02-11T10:01:31.855Z,2.63
2023-02-11T10:04:38.121Z,2.61
2023-02-11T10:07:36.549Z,2.68
2023-02-11T10:10:51.840Z,2.68
2023-02-11T10:13:48.234Z,2.68
2023-02-11T10:16:48.708Z,2.68
2023-02-11T10:19:37.178Z,2.74
2023-02-11T10:22:23.127Z,2.70
2023-02-11T10:25:07.053Z,2.67
2023-02-11T10:27:43.723Z,2.62
2023-02-11T10:31:07.653Z,2.63
2023-02-11T10:34:10.834Z,2.70
2023-02-11T10:36:48.682Z,2.64
2023-02-11T10:39:24.458Z,2.62
2023-02-11T10:42:15.704Z,2.63
2023-02-11T10:45:07.758Z,2.69
2023-02-11T10:47:45.447Z,2.71
2023-02-11T10:50:27.409Z,2.68
2023-02-11T10:53:24.737Z,2.68
2023-02-11T10:56:04.070Z,2.63
2023-02-11T10:58:57.539Z,2.67
2023-02-11T11:01:53.099Z,2.70
2023-02-11T11:04:41.730Z,2.71
2023-02-11T11:07:23.382Z,2.74
2023-02-11T11:10:04.215Z,2.74
2023-02-11T11:12:53.659Z,2.77
2023-02-11T11:15:33.289Z,2.80
2023-02-11T11:18:23.609Z,2.82
2023-02-11T11:21:08.217Z,2.83
2023-02-11T11:23:49.696Z,2.84
2023-02-11T11:26:27.196Z,2.87
2023-02-11T11:29:39.117Z,2.91
2023-02-11T11:32:37.620Z,2.91
2023-02-11T11:35:27.920Z,2.87
2023-02-11T11:38:15.948Z,2.86
2023-02-11T11:41:16.901Z,2.89
2023-02-11T11:44:31.687Z,2.92
2023-02-11T11:47:31.380Z,2.91
2023-02-11T11:50:57.509Z,2.88
2023-02-11T11:53:43.177Z,2.88
2023-02-11T11:56:36.914Z,2.91
2023-02-11T11:59:18.896Z,2.93
2023-02-11T12:02:22.882Z,2.91
2023-02-11T12:05:28.716Z,2.91
2023-02-11T12:08:24.590Z,2.93
2023-02-11T12:11:22.470Z,2.97
2023-02-11T12:14:01.743Z,3.01
2023-02-11T12:17:03.028Z,3.02
2023-02-11T12:20:32.637Z,3.08
2023-02-11T12:23:45.486Z,3.13
2023-02-11T12:26:38.998Z,3.18
2023-02-11T12:29:45.494Z,3.16
2023-02-11T12:32:34.132Z,3.19
2023-02-11T12:35:15.702Z,3.24
2023-02-11T12:38:19.110Z,3.31
2023-02-11T12:40:57.784Z,3.32
2023-02-11T12:43:44.490Z,3.33
2023-02-11T12:46:44.764Z,3.31
2023-02-11T12:49:42.331Z,3.34
2023-02-11T12:52:29.771Z,3.42
2023-02-11T12:55:29.972Z,3.50
2023-02-11T12:58:02.292Z,3.51
2023-02-11T13:00:48.946Z,3.53
2023-02-11T13:03:39.592Z,3.57
2023-02-11T13:06:40.755Z,3.64
2023-02-11T13:09:28.697Z,3.70
2023-02-11T13:12:28.289Z,3.72
2023-02-11T13:15:09.021Z,3.72
2023-02-11T13:18:30.713Z,3.76
2023-02-11T13:21:14.593Z,3.77
2023-02-11T13:24:17.985Z,3.79
2023-02-11T13:27:16.565Z,3.79
2023-02-11T13:30:37.504Z,3.88
2023-02-11T13:33:35.479Z,3.85
2023-02-11T13:36:14.401Z,3.82
2023-02-11T13:39:08.274Z,3.79
2023-02-11T13:41:45.212Z,3.81
2023-02-11T13:44:30.447Z,3.82
2023-02-11T13:47:28.772Z,3.87
2023-02-11T13:50:11.364Z,3.89
2023-02-11T13:52:43.355Z,3.89
2023-02-11T13:55:28.672Z,3.87
2023-02-11T13:58:17.233Z,3.86
2023-02-11T14:00:58.912Z,3.91
2023-02-11T14:03:57.145Z,3.93
2023-02-11T14:06:52.845Z,3.89
2023-02-11T14:09:41.549Z,3.85
2023-02-11T14:12:36.024Z,3.91
2023-02-11T14:15:12.956Z,3.87
2023-02-11T14:17:44.019Z,3.88
2023-02-11T14:20:54.805Z,3.87
2023-02-11T14:23:33.269Z,3.89
2023-02-11T14:26:20.373Z,3.93
2023-02-11T14:29:20.259Z,3.96
2023-02-11T14:32:32.323Z,3.91
2023-02-11T14:35:26.854Z,3.92
2023-02-11T14:38:28.994Z,3.98
2023-02-11T14:41:22.497Z,3.98
2023-02-11T14:44:13.354Z,3.96
2023-02-11T14:46:49.440Z,3.97
2023-02-11T14:49:41.277Z,4.00
2023-02-11T14:52:37.796Z,4.00
2023-02-11T14:55:38.390Z,4.00
2023-02-11T14:58:32.946Z,3.99
2023-02-11T15:01:26.554Z,3.97
2023-02-11T15:03:59.601Z,3.98
2023-02-11T15:06:41.851Z,4.01
2023-02-11T15:09:34.433Z,4.00
2023-02-11T15:12:29.326Z,4.00
2023-02-11T15:15:07.385Z,4.00
2023-02-11T15:17:44.588Z,3.99
2023-02-11T15:20:33.731Z,4.01
2023-02-11T15:23:24.765Z,4.00
2023-02-11T15:26:05.106Z,3.97
2023-02-11T15:28:36.300Z,3.92
2023-02-11T15:31:18.575Z,4.00
2023-02-11T15:33:49.439Z,4.00
2023-02-11T15:36:34.747Z,3.99
2023-02-11T15:39:41.604Z,3.97
2023-02-11T15:42:43.838Z,4.03
2023-02-11T15:45:15.327Z,4.11
2023-02-11T15:47:55.780Z,4.10
2023-02-11T15:50:37.465Z,4.06
2023-02-11T15:53:46.370Z,4.03
2023-02-11T15:56:44.840Z,4.08
2023-02-11T15:59:49.493Z,4.11
2023-02-11T16:02:36.896Z,4.13
2023-02-11T16:05:38.868Z,4.15
2023-02-11T16:08:30.152Z,4.15
2023-02-11T16:11:12.094Z,4.18
2023-02-11T16:13:49.269Z,4.20
2023-02-11T16:16:35.735Z,4.24
2023-02-11T16:19:19.804Z,4.20
2023-02-11T16:21:51.193Z,4.21
2023-02-11T16:24:34.760Z,4.20
2023-02-11T16:27:25.177Z,4.23
2023-02-11T16:29:57.355Z,4.31
2023-02-11T16:32:35.720Z,4.34
2023-02-11T16:35:15.428Z,4.35
2023-02-11T16:37:50.541Z,4.38
2023-02-11T16:40:28.111Z,4.40
2023-02-11T16:43:05.660Z,4.48
2023-02-11T16:45:46.780Z,4.57
2023-02-11T16:48:22.855Z,4.68
2023-02-11T16:50:54.075Z,4.70
2023-02-11T16:53:33.925Z,4.70
2023-02-11T16:56:18.138Z,4.70
2023-02-11T16:58:49.356Z,4.78
2023-02-11T17:01:19.909Z,4.83
2023-02-11T17:03:51.982Z,4.86
2023-02-11T17:06:29.529Z,4.88
2023-02-11T17:09:09.074Z,4.87
2023-02-11T17:11:46.546Z,4.93
2023-02-11T17:14:23.958Z,4.97
2023-02-11T17:17:02.101Z,5.02
2023-02-11T17:19:40.518Z,5.03
2023-02-11T17:22:18.990Z,5.02
2023-02-11T17:24:51.612Z,5.02
2023-02-11T17:27:29.915Z,5.06
2023-02-11T17:30:01.741Z,5.09
2023-02-11T17:32:38.441Z,5.12
2023-02-11T17:35:16.244Z,5.13
2023-02-11T17:37:52.090Z,5.16
2023-02-11T17:40:29.406Z,5.18
2023-02-11T17:43:08.089Z,5.23
2023-02-11T17:45:48.682Z,5.27
2023-02-11T17:48:26.282Z,5.29
2023-02-11T17:51:03.813Z,5.32
2023-02-11T17:53:41.167Z,5.34
2023-02-11T17:56:18.568Z,5.36
2023-02-11T17:58:54.050Z,5.37
2023-02-11T18:01:34.247Z,5.40
2023-02-11T18:04:07.560Z,5.35
2023-02-11T18:06:40.096Z,5.32
2023-02-11T18:09:18.036Z,5.37
2023-02-11T18:11:53.197Z,5.42
2023-02-11T18:14:23.618Z,5.46
2023-02-11T18:16:54.126Z,5.47
2023-02-11T18:19:25.108Z,5.48
2023-02-11T18:21:58.554Z,5.46
2023-02-11T18:24:32.044Z,5.49
2023-02-11T18:27:03.210Z,5.49
2023-02-11T18:29:41.720Z,5.50
2023-02-11T18:32:14.320Z,5.49
2023-02-11T18:34:51.899Z,5.50
2023-02-11T18:37:22.506Z,5.49
2023-02-11T18:39:55.235Z,5.49
2023-02-11T18:42:27.895Z,5.54
2023-02-11T18:45:15.456Z,5.53
2023-02-11T18:47:52.784Z,5.49
2023-02-11T18:50:29.856Z,5.48
2023-02-11T18:53:06.007Z,5.51
2023-02-11T18:55:46.214Z,5.50
2023-02-11T18:58:18.039Z,5.48
2023-02-11T19:00:54.189Z,5.48
2023-02-11T19:03:32.299Z,5.48
2023-02-11T19:06:05.414Z,5.52
2023-02-11T19:08:41.260Z,5.56
2023-02-11T19:11:20.395Z,5.57
2023-02-11T19:13:52.907Z,5.51
2023-02-11T19:16:31.622Z,5.52
2023-02-11T19:19:03.093Z,5.54
2023-02-11T19:21:40.628Z,5.60
2023-02-11T19:24:20.243Z,5.62
2023-02-11T19:26:58.659Z,5.56
2023-02-11T19:29:32.775Z,5.51
2023-02-11T19:32:09.029Z,5.50
2023-02-11T19:34:43.499Z,5.48
2023-02-11T19:37:21.367Z,5.46
2023-02-11T19:39:53.430Z,5.42
2023-02-11T19:42:31.516Z,5.41
2023-02-11T19:45:09.126Z,5.44
2023-02-11T19:47:46.821Z,5.47
2023-02-11T19:50:24.158Z,5.46
2023-02-11T19:52:56.436Z,5.40
2023-02-11T19:55:27.975Z,5.39
2023-02-11T19:57:59.537Z,5.44
2023-02-11T20:00:37.523Z,5.47
2023-02-11T20:03:15.439Z,5.46
2023-02-11T20:05:53.824Z,5.45
2023-02-11T20:08:33.385Z,5.38
2023-02-11T20:11:18.260Z,5.44
2023-02-11T20:13:53.941Z,5.43
2023-02-11T20:16:47.041Z,5.40
2023-02-11T20:19:24.732Z,5.37
2023-02-11T20:21:56.251Z,5.38
2023-02-11T20:24:34.652Z,5.35
2023-02-11T20:27:12.759Z,5.39
2023-02-11T20:29:50.758Z,5.41
2023-02-11T20:32:32.338Z,5.36
2023-02-11T20:35:12.300Z,5.32
2023-02-11T20:37:49.856Z,5.33
2023-02-11T20:40:28.195Z,5.34
2023-02-11T20:43:06.484Z,5.40
2023-02-11T20:45:44.537Z,5.42
2023-02-11T20:48:16.158Z,5.41
2023-02-11T20:50:48.768Z,5.35
2023-02-11T20:53:24.868Z,5.33
2023-02-11T20:55:58.578Z,5.29
2023-02-11T20:58:38.547Z,5.33
2023-02-11T21:01:32.844Z,5.37
2023-02-11T21:04:31.387Z,5.37
2023-02-11T21:07:11.352Z,5.34
2023-02-11T21:09:48.907Z,5.40
2023-02-11T21:12:27.172Z,5.40
2023-02-11T21:14:58.792Z,5.39
2023-02-11T21:17:32.688Z,5.38
2023-02-11T21:20:06.659Z,5.31
2023-02-11T21:22:44.890Z,5.25
2023-02-11T21:25:23.954Z,5.21
2023-02-11T21:27:56.008Z,5.13
2023-02-11T21:30:35.476Z,5.02
2023-02-11T21:33:13.668Z,4.97
2023-02-11T21:35:51.418Z,4.92
2023-02-11T21:38:23.237Z,4.83
2023-02-11T21:40:55.708Z,4.76
2023-02-11T21:43:27.749Z,4.73
2023-02-11T21:45:58.546Z,4.66
2023-02-11T21:48:29.113Z,4.62
2023-02-11T21:51:12.009Z,4.57
2023-02-11T21:53:49.496Z,4.53
2023-02-11T21:56:20.405Z,4.49
2023-02-11T21:58:58.586Z,4.48
2023-02-11T22:01:33.820Z,4.46
2023-02-11T22:04:08.676Z,4.49
2023-02-11T22:06:46.965Z,4.46
2023-02-11T22:09:24.583Z,4.40
2023-02-11T22:11:57.692Z,4.39
2023-02-11T22:14:35.525Z,4.27
2023-02-11T22:17:14.306Z,4.20
2023-02-11T22:19:51.789Z,4.22
2023-02-11T22:22:30.207Z,4.15
2023-02-11T22:25:02.703Z,3.99
2023-02-11T22:27:41.277Z,3.93
2023-02-11T22:30:13.771Z,3.96
2023-02-11T22:32:50.412Z,3.92
2023-02-11T22:35:27.978Z,3.84
2023-02-11T22:38:00.723Z,3.71
2023-02-11T22:40:43.027Z,3.73
2023-02-11T22:43:21.828Z,3.74
2023-02-11T22:46:01.258Z,3.70
2023-02-11T22:48:32.373Z,3.63
2023-02-11T22:51:17.583Z,3.56
2023-02-11T22:53:59.138Z,3.55
2023-02-11T22:56:36.625Z,3.44
2023-02-11T22:59:16.486Z,3.29
2023-02-11T23:01:47.925Z,3.25
2023-02-11T23:04:25.640Z,3.24
2023-02-11T23:06:59.423Z,3.19
2023-02-11T23:09:32.672Z,3.18
2023-02-11T23:12:09.517Z,3.07
2023-02-11T23:14:47.500Z,2.94
2023-02-11T23:17:24.874Z,2.93
2023-02-11T23:19:59.710Z,2.85
2023-02-11T23:22:37.906Z,2.78
2023-02-11T23:25:14.849Z,2.73
2023-02-11T23:27:52.579Z,2.80
2023-02-11T23:30:52.299Z,2.80
2023-02-11T23:33:29.956Z,2.60
2023-02-11T23:36:01.451Z,2.57
2023-02-11T23:38:39.146Z,2.56
2023-02-11T23:41:18.172Z,2.53
2023-02-11T23:43:58.353Z,2.43
2023-02-11T23:46:35.711Z,2.38
2023-02-11T23:49:13.327Z,2.30
2023-02-11T23:51:43.926Z,2.28
2023-02-11T23:54:15.691Z,2.07
2023-02-11T23:56:51.147Z,2.00
2023-02-11T23:59:29.798Z,2.03
